sensor_id;sensor_type;location;lat;lon;timestamp;temperature;humidity
65044;DHT22;51617;48.158;16.464;2023-02-13T00:00:36;8.40;94.50
65044;DHT22;51617;48.158;16.464;2023-02-13T00:03:03;8.40;94.50
65044;DHT22;51617;48.158;16.464;2023-02-13T00:05:29;8.50;94.50
65044;DHT22;51617;48.158;16.464;2023-02-13T00:07:54;8.40;94.30
65044;DHT22;51617;48.158;16.464;2023-02-13T00:10:20;8.40;94.30
65044;DHT22;51617;48.158;16.464;2023-02-13T00:12:46;8.40;94.40
65044;DHT22;51617;48.158;16.464;2023-02-13T00:15:11;8.30;94.50
65044;DHT22;51617;48.158;16.464;2023-02-13T00:17:37;8.30;94.40
65044;DHT22;51617;48.158;16.464;2023-02-13T00:20:03;8.30;94.40
65044;DHT22;51617;48.158;16.464;2023-02-13T00:22:29;8.30;94.40
65044;DHT22;51617;48.158;16.464;2023-02-13T00:24:55;8.30;94.40
65044;DHT22;51617;48.158;16.464;2023-02-13T00:27:21;8.40;94.20
65044;DHT22;51617;48.158;16.464;2023-02-13T00:29:46;8.30;94.00
65044;DHT22;51617;48.158;16.464;2023-02-13T00:32:13;8.30;93.80
65044;DHT22;51617;48.158;16.464;2023-02-13T00:34:38;8.30;93.90
65044;DHT22;51617;48.158;16.464;2023-02-13T00:37:04;8.20;93.90
65044;DHT22;51617;48.158;16.464;2023-02-13T00:39:30;8.20;93.90
65044;DHT22;51617;48.158;16.464;2023-02-13T00:41:55;8.20;93.90
65044;DHT22;51617;48.158;16.464;2023-02-13T00:44:21;8.20;93.90
65044;DHT22;51617;48.158;16.464;2023-02-13T00:46:47;8.10;93.90
65044;DHT22;51617;48.158;16.464;2023-02-13T00:49:12;8.10;93.80
65044;DHT22;51617;48.158;16.464;2023-02-13T00:51:38;8.10;93.80
65044;DHT22;51617;48.158;16.464;2023-02-13T00:54:04;8.00;93.80
65044;DHT22;51617;48.158;16.464;2023-02-13T00:56:29;8.00;93.80
65044;DHT22;51617;48.158;16.464;2023-02-13T00:58:55;7.90;93.90
65044;DHT22;51617;48.158;16.464;2023-02-13T01:01:21;7.90;94.10
65044;DHT22;51617;48.158;16.464;2023-02-13T01:03:46;7.80;94.20
65044;DHT22;51617;48.158;16.464;2023-02-13T01:06:12;7.80;94.30
65044;DHT22;51617;48.158;16.464;2023-02-13T01:08:38;7.70;94.40
65044;DHT22;51617;48.158;16.464;2023-02-13T01:11:05;7.70;94.50
65044;DHT22;51617;48.158;16.464;2023-02-13T01:13:31;7.60;94.40
65044;DHT22;51617;48.158;16.464;2023-02-13T01:15:56;7.60;94.40
65044;DHT22;51617;48.158;16.464;2023-02-13T01:18:22;7.50;94.10
65044;DHT22;51617;48.158;16.464;2023-02-13T01:21:03;7.40;94.60
65044;DHT22;51617;48.158;16.464;2023-02-13T01:23:35;7.30;95.10
65044;DHT22;51617;48.158;16.464;2023-02-13T01:26:06;7.30;95.10
65044;DHT22;51617;48.158;16.464;2023-02-13T01:28:32;7.30;95.20
65044;DHT22;51617;48.158;16.464;2023-02-13T01:30:58;7.20;95.60
65044;DHT22;51617;48.158;16.464;2023-02-13T01:33:25;7.20;95.70
65044;DHT22;51617;48.158;16.464;2023-02-13T01:35:51;7.20;95.70
65044;DHT22;51617;48.158;16.464;2023-02-13T01:38:17;7.20;95.70
65044;DHT22;51617;48.158;16.464;2023-02-13T01:40:49;7.20;95.70
65044;DHT22;51617;48.158;16.464;2023-02-13T01:43:15;7.20;95.80
65044;DHT22;51617;48.158;16.464;2023-02-13T01:45:43;7.20;95.80
65044;DHT22;51617;48.158;16.464;2023-02-13T01:53:37;7.10;96.00
65044;DHT22;51617;48.158;16.464;2023-02-13T01:58:44;7.10;96.00
65044;DHT22;51617;48.158;16.464;2023-02-13T02:01:12;7.00;96.10
65044;DHT22;51617;48.158;16.464;2023-02-13T02:03:42;7.10;96.10
65044;DHT22;51617;48.158;16.464;2023-02-13T02:06:13;7.00;96.20
65044;DHT22;51617;48.158;16.464;2023-02-13T02:08:41;7.00;96.20
65044;DHT22;51617;48.158;16.464;2023-02-13T02:11:14;7.10;96.20
65044;DHT22;51617;48.158;16.464;2023-02-13T02:13:41;7.10;96.20
65044;DHT22;51617;48.158;16.464;2023-02-13T02:16:07;7.10;96.20
65044;DHT22;51617;48.158;16.464;2023-02-13T02:18:32;7.10;96.10
65044;DHT22;51617;48.158;16.464;2023-02-13T02:37:42;7.20;95.90
65044;DHT22;51617;48.158;16.464;2023-02-13T02:42:55;7.30;95.70
65044;DHT22;51617;48.158;16.464;2023-02-13T02:45:31;7.30;95.60
65044;DHT22;51617;48.158;16.464;2023-02-13T02:48:11;7.30;95.50
65044;DHT22;51617;48.158;16.464;2023-02-13T02:51:10;7.30;95.50
65044;DHT22;51617;48.158;16.464;2023-02-13T02:53:42;7.30;95.40
65044;DHT22;51617;48.158;16.464;2023-02-13T03:01:33;7.40;95.10
65044;DHT22;51617;48.158;16.464;2023-02-13T03:04:24;7.40;94.90
65044;DHT22;51617;48.158;16.464;2023-02-13T03:07:13;7.40;94.80
65044;DHT22;51617;48.158;16.464;2023-02-13T03:09:42;7.40;94.70
65044;DHT22;51617;48.158;16.464;2023-02-13T03:12:37;7.50;94.70
65044;DHT22;51617;48.158;16.464;2023-02-13T03:15:24;7.50;94.50
65044;DHT22;51617;48.158;16.464;2023-02-13T03:17:51;7.50;94.50
65044;DHT22;51617;48.158;16.464;2023-02-13T03:20:51;7.50;94.50
65044;DHT22;51617;48.158;16.464;2023-02-13T03:26:31;7.40;94.50
65044;DHT22;51617;48.158;16.464;2023-02-13T03:29:45;7.50;94.40
65044;DHT22;51617;48.158;16.464;2023-02-13T03:38:13;7.50;94.40
65044;DHT22;51617;48.158;16.464;2023-02-13T03:40:48;7.60;94.30
65044;DHT22;51617;48.158;16.464;2023-02-13T03:43:44;7.60;94.10
65044;DHT22;51617;48.158;16.464;2023-02-13T03:46:12;7.70;94.00
65044;DHT22;51617;48.158;16.464;2023-02-13T03:48:41;7.60;94.00
65044;DHT22;51617;48.158;16.464;2023-02-13T03:51:39;7.70;93.90
65044;DHT22;51617;48.158;16.464;2023-02-13T03:54:20;7.70;93.80
65044;DHT22;51617;48.158;16.464;2023-02-13T03:56:49;7.70;93.90
65044;DHT22;51617;48.158;16.464;2023-02-13T03:59:35;7.60;93.80
65044;DHT22;51617;48.158;16.464;2023-02-13T04:02:07;7.60;93.80
65044;DHT22;51617;48.158;16.464;2023-02-13T04:04:43;7.70;93.70
65044;DHT22;51617;48.158;16.464;2023-02-13T04:07:16;7.70;93.70
65044;DHT22;51617;48.158;16.464;2023-02-13T04:09:55;7.80;93.50
65044;DHT22;51617;48.158;16.464;2023-02-13T04:12:59;7.80;93.40
65044;DHT22;51617;48.158;16.464;2023-02-13T04:15:50;7.80;93.40
65044;DHT22;51617;48.158;16.464;2023-02-13T04:18:24;7.80;93.50
65044;DHT22;51617;48.158;16.464;2023-02-13T04:20:51;7.80;93.20
65044;DHT22;51617;48.158;16.464;2023-02-13T04:23:18;7.80;93.20
65044;DHT22;51617;48.158;16.464;2023-02-13T04:25:47;7.80;93.40
65044;DHT22;51617;48.158;16.464;2023-02-13T04:28:14;7.80;93.40
65044;DHT22;51617;48.158;16.464;2023-02-13T04:30:40;7.90;93.40
65044;DHT22;51617;48.158;16.464;2023-02-13T04:33:06;7.90;93.10
65044;DHT22;51617;48.158;16.464;2023-02-13T04:35:32;7.90;92.90
65044;DHT22;51617;48.158;16.464;2023-02-13T04:37:57;7.90;92.90
65044;DHT22;51617;48.158;16.464;2023-02-13T04:40:23;7.90;93.00
65044;DHT22;51617;48.158;16.464;2023-02-13T04:42:49;8.00;92.90
65044;DHT22;51617;48.158;16.464;2023-02-13T04:45:15;8.00;92.90
65044;DHT22;51617;48.158;16.464;2023-02-13T04:47:41;8.10;92.80
65044;DHT22;51617;48.158;16.464;2023-02-13T04:50:07;8.10;92.80
65044;DHT22;51617;48.158;16.464;2023-02-13T04:52:33;8.20;92.80
65044;DHT22;51617;48.158;16.464;2023-02-13T04:54:59;8.20;92.50
65044;DHT22;51617;48.158;16.464;2023-02-13T04:57:25;8.30;92.40
65044;DHT22;51617;48.158;16.464;2023-02-13T04:59:50;8.30;92.30
65044;DHT22;51617;48.158;16.464;2023-02-13T05:02:16;8.40;92.10
65044;DHT22;51617;48.158;16.464;2023-02-13T05:04:42;8.30;92.20
65044;DHT22;51617;48.158;16.464;2023-02-13T05:07:07;8.30;92.40
65044;DHT22;51617;48.158;16.464;2023-02-13T05:09:33;8.30;92.40
65044;DHT22;51617;48.158;16.464;2023-02-13T05:11:59;8.30;92.30
65044;DHT22;51617;48.158;16.464;2023-02-13T05:14:24;8.40;92.20
65044;DHT22;51617;48.158;16.464;2023-02-13T05:16:50;8.30;92.20
65044;DHT22;51617;48.158;16.464;2023-02-13T05:19:16;8.30;92.10
65044;DHT22;51617;48.158;16.464;2023-02-13T05:21:42;8.40;92.10
65044;DHT22;51617;48.158;16.464;2023-02-13T05:24:26;8.40;92.20
65044;DHT22;51617;48.158;16.464;2023-02-13T05:26:52;8.30;92.10
65044;DHT22;51617;48.158;16.464;2023-02-13T05:29:17;8.30;92.20
65044;DHT22;51617;48.158;16.464;2023-02-13T05:32:02;8.30;92.30
65044;DHT22;51617;48.158;16.464;2023-02-13T05:34:29;8.40;92.30
65044;DHT22;51617;48.158;16.464;2023-02-13T05:36:55;8.30;92.20
65044;DHT22;51617;48.158;16.464;2023-02-13T05:39:20;8.20;92.40
65044;DHT22;51617;48.158;16.464;2023-02-13T05:41:47;8.10;92.50
65044;DHT22;51617;48.158;16.464;2023-02-13T05:44:13;8.10;92.60
65044;DHT22;51617;48.158;16.464;2023-02-13T05:46:41;8.00;92.80
65044;DHT22;51617;48.158;16.464;2023-02-13T05:49:08;8.00;92.90
65044;DHT22;51617;48.158;16.464;2023-02-13T05:51:34;8.00;92.80
65044;DHT22;51617;48.158;16.464;2023-02-13T05:54:00;8.00;93.00
65044;DHT22;51617;48.158;16.464;2023-02-13T05:56:26;8.00;93.00
65044;DHT22;51617;48.158;16.464;2023-02-13T05:58:53;8.10;93.00
65044;DHT22;51617;48.158;16.464;2023-02-13T06:01:19;8.10;93.00
65044;DHT22;51617;48.158;16.464;2023-02-13T06:03:44;8.10;93.10
65044;DHT22;51617;48.158;16.464;2023-02-13T06:06:10;8.10;93.10
65044;DHT22;51617;48.158;16.464;2023-02-13T06:08:36;8.10;93.10
65044;DHT22;51617;48.158;16.464;2023-02-13T06:11:02;8.10;93.10
65044;DHT22;51617;48.158;16.464;2023-02-13T06:13:27;8.20;92.90
65044;DHT22;51617;48.158;16.464;2023-02-13T06:15:53;8.00;93.10
65044;DHT22;51617;48.158;16.464;2023-02-13T06:18:19;7.90;93.20
65044;DHT22;51617;48.158;16.464;2023-02-13T06:20:45;8.00;93.40
65044;DHT22;51617;48.158;16.464;2023-02-13T06:23:11;8.00;93.30
65044;DHT22;51617;48.158;16.464;2023-02-13T06:25:37;8.10;93.20
65044;DHT22;51617;48.158;16.464;2023-02-13T06:28:03;8.10;93.20
65044;DHT22;51617;48.158;16.464;2023-02-13T06:30:29;8.10;93.20
65044;DHT22;51617;48.158;16.464;2023-02-13T06:32:55;8.00;93.30
65044;DHT22;51617;48.158;16.464;2023-02-13T06:35:20;8.10;93.40
65044;DHT22;51617;48.158;16.464;2023-02-13T06:37:46;8.10;93.30
65044;DHT22;51617;48.158;16.464;2023-02-13T06:40:14;8.10;93.30
65044;DHT22;51617;48.158;16.464;2023-02-13T06:42:41;8.10;93.30
65044;DHT22;51617;48.158;16.464;2023-02-13T06:45:08;8.10;93.20
65044;DHT22;51617;48.158;16.464;2023-02-13T06:47:34;8.20;93.00
65044;DHT22;51617;48.158;16.464;2023-02-13T06:50:00;8.20;92.90
65044;DHT22;51617;48.158;16.464;2023-02-13T06:52:26;8.30;92.90
65044;DHT22;51617;48.158;16.464;2023-02-13T06:54:51;8.40;92.80
65044;DHT22;51617;48.158;16.464;2023-02-13T06:57:17;8.40;92.60
65044;DHT22;51617;48.158;16.464;2023-02-13T06:59:43;8.40;92.50
65044;DHT22;51617;48.158;16.464;2023-02-13T07:02:10;8.40;92.50
65044;DHT22;51617;48.158;16.464;2023-02-13T07:04:36;8.40;92.50
65044;DHT22;51617;48.158;16.464;2023-02-13T07:07:01;8.50;92.50
65044;DHT22;51617;48.158;16.464;2023-02-13T07:09:27;8.50;92.40
65044;DHT22;51617;48.158;16.464;2023-02-13T07:11:53;8.50;92.40
65044;DHT22;51617;48.158;16.464;2023-02-13T07:14:18;8.50;92.30
65044;DHT22;51617;48.158;16.464;2023-02-13T07:16:44;8.50;92.30
65044;DHT22;51617;48.158;16.464;2023-02-13T07:19:09;8.50;92.20
65044;DHT22;51617;48.158;16.464;2023-02-13T07:21:35;8.50;92.20
65044;DHT22;51617;48.158;16.464;2023-02-13T07:24:03;8.60;92.30
65044;DHT22;51617;48.158;16.464;2023-02-13T07:26:28;8.60;92.30
65044;DHT22;51617;48.158;16.464;2023-02-13T07:28:54;8.60;92.30
65044;DHT22;51617;48.158;16.464;2023-02-13T07:31:19;8.60;92.20
65044;DHT22;51617;48.158;16.464;2023-02-13T07:33:47;8.70;92.20
65044;DHT22;51617;48.158;16.464;2023-02-13T07:36:13;8.70;92.10
65044;DHT22;51617;48.158;16.464;2023-02-13T07:38:39;8.70;92.10
65044;DHT22;51617;48.158;16.464;2023-02-13T07:41:04;8.70;92.20
65044;DHT22;51617;48.158;16.464;2023-02-13T07:43:30;8.70;92.20
65044;DHT22;51617;48.158;16.464;2023-02-13T07:46:00;8.80;92.20
65044;DHT22;51617;48.158;16.464;2023-02-13T07:48:27;8.80;92.20
65044;DHT22;51617;48.158;16.464;2023-02-13T07:50:54;8.80;92.30
65044;DHT22;51617;48.158;16.464;2023-02-13T07:53:23;8.80;92.40
65044;DHT22;51617;48.158;16.464;2023-02-13T07:55:49;8.80;92.60
65044;DHT22;51617;48.158;16.464;2023-02-13T07:58:15;8.70;92.60
65044;DHT22;51617;48.158;16.464;2023-02-13T08:00:40;8.80;92.70
65044;DHT22;51617;48.158;16.464;2023-02-13T08:03:06;8.80;92.80
65044;DHT22;51617;48.158;16.464;2023-02-13T08:05:32;8.80;92.90
65044;DHT22;51617;48.158;16.464;2023-02-13T08:07:58;8.70;92.90
65044;DHT22;51617;48.158;16.464;2023-02-13T08:10:23;8.80;93.00
65044;DHT22;51617;48.158;16.464;2023-02-13T08:13:08;8.70;93.00
65044;DHT22;51617;48.158;16.464;2023-02-13T08:15:36;8.80;93.00
65044;DHT22;51617;48.158;16.464;2023-02-13T08:18:02;8.80;93.00
65044;DHT22;51617;48.158;16.464;2023-02-13T08:20:28;8.90;92.90
65044;DHT22;51617;48.158;16.464;2023-02-13T08:23:04;8.90;92.90
65044;DHT22;51617;48.158;16.464;2023-02-13T08:25:30;8.90;92.90
65044;DHT22;51617;48.158;16.464;2023-02-13T08:27:56;8.90;93.00
65044;DHT22;51617;48.158;16.464;2023-02-13T08:30:22;8.90;92.90
65044;DHT22;51617;48.158;16.464;2023-02-13T08:32:48;8.90;92.90
65044;DHT22;51617;48.158;16.464;2023-02-13T08:35:13;9.00;92.90
65044;DHT22;51617;48.158;16.464;2023-02-13T08:37:39;9.00;92.90
65044;DHT22;51617;48.158;16.464;2023-02-13T08:40:05;9.00;92.80
65044;DHT22;51617;48.158;16.464;2023-02-13T08:42:35;9.10;92.70
65044;DHT22;51617;48.158;16.464;2023-02-13T08:45:01;9.10;92.70
65044;DHT22;51617;48.158;16.464;2023-02-13T08:47:26;9.10;92.70
65044;DHT22;51617;48.158;16.464;2023-02-13T08:49:52;9.10;92.70
65044;DHT22;51617;48.158;16.464;2023-02-13T08:52:18;9.10;92.60
65044;DHT22;51617;48.158;16.464;2023-02-13T08:54:43;9.10;92.60
65044;DHT22;51617;48.158;16.464;2023-02-13T08:57:09;9.20;92.60
65044;DHT22;51617;48.158;16.464;2023-02-13T08:59:35;9.20;92.50
65044;DHT22;51617;48.158;16.464;2023-02-13T09:02:00;9.20;92.40
65044;DHT22;51617;48.158;16.464;2023-02-13T09:04:26;9.20;92.40
65044;DHT22;51617;48.158;16.464;2023-02-13T09:06:52;9.20;92.40
65044;DHT22;51617;48.158;16.464;2023-02-13T09:09:18;9.20;92.30
65044;DHT22;51617;48.158;16.464;2023-02-13T09:11:44;9.20;92.30
65044;DHT22;51617;48.158;16.464;2023-02-13T09:14:09;9.20;92.30
65044;DHT22;51617;48.158;16.464;2023-02-13T09:16:35;9.20;92.70
65044;DHT22;51617;48.158;16.464;2023-02-13T09:19:01;9.20;92.30
65044;DHT22;51617;48.158;16.464;2023-02-13T09:21:26;9.20;92.20
65044;DHT22;51617;48.158;16.464;2023-02-13T09:23:52;9.30;92.20
65044;DHT22;51617;48.158;16.464;2023-02-13T09:26:19;9.30;92.20
65044;DHT22;51617;48.158;16.464;2023-02-13T09:28:45;9.30;92.20
65044;DHT22;51617;48.158;16.464;2023-02-13T09:31:16;9.30;92.10
65044;DHT22;51617;48.158;16.464;2023-02-13T09:33:43;9.40;92.00
65044;DHT22;51617;48.158;16.464;2023-02-13T09:36:11;9.50;91.90
65044;DHT22;51617;48.158;16.464;2023-02-13T09:38:39;9.50;91.80
65044;DHT22;51617;48.158;16.464;2023-02-13T09:41:11;9.50;91.80
65044;DHT22;51617;48.158;16.464;2023-02-13T09:47:43;9.50;91.80
65044;DHT22;51617;48.158;16.464;2023-02-13T09:49:53;9.40;91.90
65044;DHT22;51617;48.158;16.464;2023-02-13T09:52:20;9.30;92.10
65044;DHT22;51617;48.158;16.464;2023-02-13T09:54:45;9.30;92.30
65044;DHT22;51617;48.158;16.464;2023-02-13T09:57:24;9.30;92.20
65044;DHT22;51617;48.158;16.464;2023-02-13T10:00:03;9.30;92.30
65044;DHT22;51617;48.158;16.464;2023-02-13T10:10:58;9.40;92.00
65044;DHT22;51617;48.158;16.464;2023-02-13T10:13:58;9.30;91.90
65044;DHT22;51617;48.158;16.464;2023-02-13T10:16:49;9.40;92.00
65044;DHT22;51617;48.158;16.464;2023-02-13T10:22:28;9.40;92.00
65044;DHT22;51617;48.158;16.464;2023-02-13T10:25:11;9.40;91.80
65044;DHT22;51617;48.158;16.464;2023-02-13T10:27:44;9.40;91.70
65044;DHT22;51617;48.158;16.464;2023-02-13T10:38:17;9.50;91.60
65044;DHT22;51617;48.158;16.464;2023-02-13T10:46:27;9.50;91.50
65044;DHT22;51617;48.158;16.464;2023-02-13T10:49:50;9.60;91.50
65044;DHT22;51617;48.158;16.464;2023-02-13T10:57:26;9.90;91.00
65044;DHT22;51617;48.158;16.464;2023-02-13T11:02:38;10.10;90.80
65044;DHT22;51617;48.158;16.464;2023-02-13T11:05:18;10.10;91.00
65044;DHT22;51617;48.158;16.464;2023-02-13T11:07:46;10.10;91.00
65044;DHT22;51617;48.158;16.464;2023-02-13T11:12:43;10.00;91.20
65044;DHT22;51617;48.158;16.464;2023-02-13T11:17:45;9.90;90.80
65044;DHT22;51617;48.158;16.464;2023-02-13T11:20:33;9.80;91.00
65044;DHT22;51617;48.158;16.464;2023-02-13T11:26:05;9.80;91.00
65044;DHT22;51617;48.158;16.464;2023-02-13T11:28:44;9.90;90.90
65044;DHT22;51617;48.158;16.464;2023-02-13T11:31:13;9.90;90.70
65044;DHT22;51617;48.158;16.464;2023-02-13T11:33:39;9.80;90.80
65044;DHT22;51617;48.158;16.464;2023-02-13T11:36:14;9.90;90.70
65044;DHT22;51617;48.158;16.464;2023-02-13T11:38:40;9.90;90.70
65044;DHT22;51617;48.158;16.464;2023-02-13T11:41:12;9.90;90.60
65044;DHT22;51617;48.158;16.464;2023-02-13T11:43:58;10.00;90.40
65044;DHT22;51617;48.158;16.464;2023-02-13T11:46:30;10.00;90.40
65044;DHT22;51617;48.158;16.464;2023-02-13T11:49:18;10.00;90.70
65044;DHT22;51617;48.158;16.464;2023-02-13T11:51:55;10.00;90.70
65044;DHT22;51617;48.158;16.464;2023-02-13T11:54:43;9.90;90.70
65044;DHT22;51617;48.158;16.464;2023-02-13T11:57:29;10.00;90.80
65044;DHT22;51617;48.158;16.464;2023-02-13T11:59:55;10.00;90.90
65044;DHT22;51617;48.158;16.464;2023-02-13T12:02:28;10.00;90.60
65044;DHT22;51617;48.158;16.464;2023-02-13T12:05:20;9.90;90.70
65044;DHT22;51617;48.158;16.464;2023-02-13T12:07:47;10.00;90.70
65044;DHT22;51617;48.158;16.464;2023-02-13T12:15:31;10.10;90.00
65044;DHT22;51617;48.158;16.464;2023-02-13T12:26:44;9.90;89.80
65044;DHT22;51617;48.158;16.464;2023-02-13T12:32:18;10.00;90.10
65044;DHT22;51617;48.158;16.464;2023-02-13T12:46:03;10.10;87.70
65044;DHT22;51617;48.158;16.464;2023-02-13T12:51:27;10.20;88.40
65044;DHT22;51617;48.158;16.464;2023-02-13T12:54:26;10.20;87.90
65044;DHT22;51617;48.158;16.464;2023-02-13T12:59:42;10.20;86.40
65044;DHT22;51617;48.158;16.464;2023-02-13T13:04:55;10.00;87.40
65044;DHT22;51617;48.158;16.464;2023-02-13T13:12:57;10.20;87.20
65044;DHT22;51617;48.158;16.464;2023-02-13T13:18:40;10.30;86.60
65044;DHT22;51617;48.158;16.464;2023-02-13T13:21:22;10.50;86.20
65044;DHT22;51617;48.158;16.464;2023-02-13T13:23:59;10.60;85.40
65044;DHT22;51617;48.158;16.464;2023-02-13T13:26:35;10.60;85.00
65044;DHT22;51617;48.158;16.464;2023-02-13T13:32:06;10.90;84.40
65044;DHT22;51617;48.158;16.464;2023-02-13T13:34:34;11.10;84.20
65044;DHT22;51617;48.158;16.464;2023-02-13T13:40:04;11.30;82.00
65044;DHT22;51617;48.158;16.464;2023-02-13T13:48:22;11.30;80.80
65044;DHT22;51617;48.158;16.464;2023-02-13T13:50:51;11.10;78.70
65044;DHT22;51617;48.158;16.464;2023-02-13T13:53:19;11.00;79.80
65044;DHT22;51617;48.158;16.464;2023-02-13T14:03:42;11.10;81.20
65044;DHT22;51617;48.158;16.464;2023-02-13T14:06:10;11.10;82.70
65044;DHT22;51617;48.158;16.464;2023-02-13T14:11:24;11.20;81.10
65044;DHT22;51617;48.158;16.464;2023-02-13T14:13:50;11.20;81.70
65044;DHT22;51617;48.158;16.464;2023-02-13T14:16:45;11.30;81.40
65044;DHT22;51617;48.158;16.464;2023-02-13T14:19:36;11.40;82.20
65044;DHT22;51617;48.158;16.464;2023-02-13T14:27:56;11.20;79.50
65044;DHT22;51617;48.158;16.464;2023-02-13T14:32:56;11.20;79.40
65044;DHT22;51617;48.158;16.464;2023-02-13T14:35:34;11.10;79.60
65044;DHT22;51617;48.158;16.464;2023-02-13T14:38:04;11.10;79.80
65044;DHT22;51617;48.158;16.464;2023-02-13T14:40:47;11.00;80.30
65044;DHT22;51617;48.158;16.464;2023-02-13T14:43:32;10.90;79.80
65044;DHT22;51617;48.158;16.464;2023-02-13T14:48:44;10.80;79.40
65044;DHT22;51617;48.158;16.464;2023-02-13T14:51:19;10.70;79.10
65044;DHT22;51617;48.158;16.464;2023-02-13T14:53:56;10.70;79.50
65044;DHT22;51617;48.158;16.464;2023-02-13T14:56:23;10.80;79.00
65044;DHT22;51617;48.158;16.464;2023-02-13T14:58:52;10.80;79.00
65044;DHT22;51617;48.158;16.464;2023-02-13T15:01:47;10.80;79.40
65044;DHT22;51617;48.158;16.464;2023-02-13T15:06:52;10.80;79.50
65044;DHT22;51617;48.158;16.464;2023-02-13T15:11:52;10.70;78.80
65044;DHT22;51617;48.158;16.464;2023-02-13T15:16:47;10.70;78.70
65044;DHT22;51617;48.158;16.464;2023-02-13T15:19:19;10.70;79.30
65044;DHT22;51617;48.158;16.464;2023-02-13T15:22:00;10.70;79.50
65044;DHT22;51617;48.158;16.464;2023-02-13T15:24:34;10.70;79.30
65044;DHT22;51617;48.158;16.464;2023-02-13T15:27:02;10.70;79.40
65044;DHT22;51617;48.158;16.464;2023-02-13T15:29:29;10.80;79.30
65044;DHT22;51617;48.158;16.464;2023-02-13T15:31:55;10.70;78.90
65044;DHT22;51617;48.158;16.464;2023-02-13T15:34:25;10.70;78.70
65044;DHT22;51617;48.158;16.464;2023-02-13T15:36:52;10.60;79.10
65044;DHT22;51617;48.158;16.464;2023-02-13T15:39:22;10.60;78.70
65044;DHT22;51617;48.158;16.464;2023-02-13T15:41:51;10.50;78.60
65044;DHT22;51617;48.158;16.464;2023-02-13T15:44:37;10.40;78.80
65044;DHT22;51617;48.158;16.464;2023-02-13T15:49:37;10.40;78.60
65044;DHT22;51617;48.158;16.464;2023-02-13T15:52:13;10.40;78.80
65044;DHT22;51617;48.158;16.464;2023-02-13T15:54:48;10.40;79.70
65044;DHT22;51617;48.158;16.464;2023-02-13T15:57:14;10.40;79.30
65044;DHT22;51617;48.158;16.464;2023-02-13T15:59:40;10.40;79.50
65044;DHT22;51617;48.158;16.464;2023-02-13T16:02:38;10.40;79.60
65044;DHT22;51617;48.158;16.464;2023-02-13T16:05:00;10.40;79.70
65044;DHT22;51617;48.158;16.464;2023-02-13T16:07:26;10.40;79.70
65044;DHT22;51617;48.158;16.464;2023-02-13T16:12:50;10.40;80.00
65044;DHT22;51617;48.158;16.464;2023-02-13T16:15:18;10.40;80.30
65044;DHT22;51617;48.158;16.464;2023-02-13T16:17:45;10.40;81.00
65044;DHT22;51617;48.158;16.464;2023-02-13T16:22:47;10.40;81.00
65044;DHT22;51617;48.158;16.464;2023-02-13T16:27:47;10.30;80.80
65044;DHT22;51617;48.158;16.464;2023-02-13T16:35:47;10.20;81.80
65044;DHT22;51617;48.158;16.464;2023-02-13T16:48:38;10.20;82.10
65044;DHT22;51617;48.158;16.464;2023-02-13T16:51:04;10.20;82.20
65044;DHT22;51617;48.158;16.464;2023-02-13T16:53:30;10.20;82.40
65044;DHT22;51617;48.158;16.464;2023-02-13T16:56:04;10.10;81.90
65044;DHT22;51617;48.158;16.464;2023-02-13T16:58:30;10.20;81.80
65044;DHT22;51617;48.158;16.464;2023-02-13T17:00:56;10.20;81.80
65044;DHT22;51617;48.158;16.464;2023-02-13T17:03:22;10.20;82.20
65044;DHT22;51617;48.158;16.464;2023-02-13T17:05:48;10.10;81.80
65044;DHT22;51617;48.158;16.464;2023-02-13T17:08:14;10.20;82.00
65044;DHT22;51617;48.158;16.464;2023-02-13T17:10:40;10.20;82.20
65044;DHT22;51617;48.158;16.464;2023-02-13T17:13:25;10.20;82.40
65044;DHT22;51617;48.158;16.464;2023-02-13T17:15:51;10.20;82.70
65044;DHT22;51617;48.158;16.464;2023-02-13T17:18:20;10.20;83.10
65044;DHT22;51617;48.158;16.464;2023-02-13T17:20:46;10.10;83.20
65044;DHT22;51617;48.158;16.464;2023-02-13T17:23:17;10.10;83.50
65044;DHT22;51617;48.158;16.464;2023-02-13T17:25:45;10.10;83.90
65044;DHT22;51617;48.158;16.464;2023-02-13T17:28:17;10.00;84.20
65044;DHT22;51617;48.158;16.464;2023-02-13T17:30:44;10.10;84.20
65044;DHT22;51617;48.158;16.464;2023-02-13T17:33:30;10.00;84.60
65044;DHT22;51617;48.158;16.464;2023-02-13T17:35:57;9.90;84.40
65044;DHT22;51617;48.158;16.464;2023-02-13T17:38:23;10.00;84.50
65044;DHT22;51617;48.158;16.464;2023-02-13T17:40:49;10.00;84.60
65044;DHT22;51617;48.158;16.464;2023-02-13T17:43:17;10.00;84.90
65044;DHT22;51617;48.158;16.464;2023-02-13T17:45:45;10.00;84.90
65044;DHT22;51617;48.158;16.464;2023-02-13T17:48:11;10.00;84.90
65044;DHT22;51617;48.158;16.464;2023-02-13T17:50:37;10.10;84.90
65044;DHT22;51617;48.158;16.464;2023-02-13T17:53:06;10.00;84.90
65044;DHT22;51617;48.158;16.464;2023-02-13T17:55:34;10.00;85.10
65044;DHT22;51617;48.158;16.464;2023-02-13T17:58:01;9.90;85.20
65044;DHT22;51617;48.158;16.464;2023-02-13T18:00:29;9.90;85.40
65044;DHT22;51617;48.158;16.464;2023-02-13T18:02:58;9.90;85.40
65044;DHT22;51617;48.158;16.464;2023-02-13T18:05:24;9.90;85.50
65044;DHT22;51617;48.158;16.464;2023-02-13T18:07:50;9.80;85.50
65044;DHT22;51617;48.158;16.464;2023-02-13T18:10:20;9.90;85.60
65044;DHT22;51617;48.158;16.464;2023-02-13T18:12:50;9.90;85.60
65044;DHT22;51617;48.158;16.464;2023-02-13T18:15:17;9.90;85.60
65044;DHT22;51617;48.158;16.464;2023-02-13T18:17:46;9.80;85.60
65044;DHT22;51617;48.158;16.464;2023-02-13T18:20:18;9.80;85.60
65044;DHT22;51617;48.158;16.464;2023-02-13T18:22:46;9.70;85.70
65044;DHT22;51617;48.158;16.464;2023-02-13T18:25:15;9.70;86.10
65044;DHT22;51617;48.158;16.464;2023-02-13T18:27:41;9.70;86.50
65044;DHT22;51617;48.158;16.464;2023-02-13T18:30:10;9.80;86.50
65044;DHT22;51617;48.158;16.464;2023-02-13T18:32:36;9.80;87.30
65044;DHT22;51617;48.158;16.464;2023-02-13T18:35:02;9.60;86.90
65044;DHT22;51617;48.158;16.464;2023-02-13T18:37:28;9.60;87.20
65044;DHT22;51617;48.158;16.464;2023-02-13T18:39:56;9.50;87.50
65044;DHT22;51617;48.158;16.464;2023-02-13T18:42:22;9.40;87.50
65044;DHT22;51617;48.158;16.464;2023-02-13T18:44:49;9.40;87.60
65044;DHT22;51617;48.158;16.464;2023-02-13T18:47:15;9.40;87.60
65044;DHT22;51617;48.158;16.464;2023-02-13T18:49:42;9.40;87.70
65044;DHT22;51617;48.158;16.464;2023-02-13T18:52:10;9.50;87.70
65044;DHT22;51617;48.158;16.464;2023-02-13T18:54:36;9.40;87.80
65044;DHT22;51617;48.158;16.464;2023-02-13T18:57:04;9.40;87.80
65044;DHT22;51617;48.158;16.464;2023-02-13T18:59:30;9.40;87.90
65044;DHT22;51617;48.158;16.464;2023-02-13T19:01:57;9.30;87.90
65044;DHT22;51617;48.158;16.464;2023-02-13T19:04:23;9.40;88.20